sensor_id;sensor_type;location;lat;lon;timestamp;P1;durP1;ratioP1;P2;durP2;ratioP2
58697;SDS011;44475;53.206;-6.106;2024-01-27T00:01:28;7.28;;;2.00;;
58697;SDS011;44475;53.206;-6.106;2024-01-27T00:03:54;3.83;;;1.70;;
58697;SDS011;44475;53.206;-6.106;2024-01-27T00:06:20;3.42;;;1.90;;
58697;SDS011;44475;53.206;-6.106;2024-01-27T00:08:46;3.53;;;1.80;;
58697;SDS011;44475;53.206;-6.106;2024-01-27T00:11:13;4.63;;;1.90;;
58697;SDS011;44475;53.206;-6.106;2024-01-27T00:13:39;4.68;;;1.98;;
58697;SDS011;44475;53.206;-6.106;2024-01-27T00:16:05;5.72;;;1.70;;
58697;SDS011;44475;53.206;-6.106;2024-01-27T00:18:32;3.33;;;1.90;;
58697;SDS011;44475;53.206;-6.106;2024-01-27T00:21:00;5.10;;;1.70;;
58697;SDS011;44475;53.206;-6.106;2024-01-27T00:23:27;3.83;;;1.90;;
58697;SDS011;44475;53.206;-6.106;2024-01-27T00:25:53;3.83;;;1.80;;
58697;SDS011;44475;53.206;-6.106;2024-01-27T00:28:19;3.92;;;1.73;;
58697;SDS011;44475;53.206;-6.106;2024-01-27T00:30:46;4.07;;;1.95;;
58697;SDS011;44475;53.206;-6.106;2024-01-27T00:33:12;3.67;;;1.63;;
58697;SDS011;44475;53.206;-6.106;2024-01-27T00:35:38;4.78;;;1.83;;
58697;SDS011;44475;53.206;-6.106;2024-01-27T00:38:04;3.83;;;1.60;;
58697;SDS011;44475;53.206;-6.106;2024-01-27T00:40:31;6.40;;;1.65;;
58697;SDS011;44475;53.206;-6.106;2024-01-27T00:42:57;5.00;;;2.03;;
58697;SDS011;44475;53.206;-6.106;2024-01-27T00:45:24;5.20;;;1.98;;
58697;SDS011;44475;53.206;-6.106;2024-01-27T00:47:53;9.60;;;1.92;;
58697;SDS011;44475;53.206;-6.106;2024-01-27T00:50:19;6.97;;;1.95;;
58697;SDS011;44475;53.206;-6.106;2024-01-27T00:52:46;4.07;;;1.60;;
58697;SDS011;44475;53.206;-6.106;2024-01-27T00:55:12;6.30;;;2.00;;
58697;SDS011;44475;53.206;-6.106;2024-01-27T00:57:39;4.97;;;1.70;;
58697;SDS011;44475;53.206;-6.106;2024-01-27T01:00:08;4.32;;;1.90;;
58697;SDS011;44475;53.206;-6.106;2024-01-27T01:02:37;10.23;;;1.90;;
58697;SDS011;44475;53.206;-6.106;2024-01-27T01:05:03;4.53;;;2.03;;
58697;SDS011;44475;53.206;-6.106;2024-01-27T01:07:30;2.03;;;1.40;;
58697;SDS011;44475;53.206;-6.106;2024-01-27T01:09:57;3.67;;;1.70;;
58697;SDS011;44475;53.206;-6.106;2024-01-27T01:12:23;5.10;;;1.65;;
58697;SDS011;44475;53.206;-6.106;2024-01-27T01:14:51;4.05;;;1.60;;
58697;SDS011;44475;53.206;-6.106;2024-01-27T01:17:17;4.32;;;1.75;;
58697;SDS011;44475;53.206;-6.106;2024-01-27T01:19:43;2.90;;;1.65;;
58697;SDS011;44475;53.206;-6.106;2024-01-27T01:22:10;3.30;;;1.65;;
58697;SDS011;44475;53.206;-6.106;2024-01-27T01:24:36;3.83;;;1.60;;
58697;SDS011;44475;53.206;-6.106;2024-01-27T01:27:02;3.78;;;1.77;;
58697;SDS011;44475;53.206;-6.106;2024-01-27T01:29:29;2.75;;;1.40;;
58697;SDS011;44475;53.206;-6.106;2024-01-27T01:31:56;2.33;;;1.55;;
58697;SDS011;44475;53.206;-6.106;2024-01-27T01:34:22;2.58;;;1.42;;
58697;SDS011;44475;53.206;-6.106;2024-01-27T01:36:49;3.47;;;1.60;;
58697;SDS011;44475;53.206;-6.106;2024-01-27T01:39:15;4.15;;;1.70;;
58697;SDS011;44475;53.206;-6.106;2024-01-27T01:41:41;3.65;;;1.65;;
58697;SDS011;44475;53.206;-6.106;2024-01-27T01:44:08;4.88;;;1.83;;
58697;SDS011;44475;53.206;-6.106;2024-01-27T01:46:34;3.55;;;1.60;;
58697;SDS011;44475;53.206;-6.106;2024-01-27T01:49:00;2.67;;;1.50;;
58697;SDS011;44475;53.206;-6.106;2024-01-27T01:51:27;1.92;;;1.35;;
58697;SDS011;44475;53.206;-6.106;2024-01-27T01:53:54;2.95;;;1.95;;
58697;SDS011;44475;53.206;-6.106;2024-01-27T01:56:23;2.63;;;1.50;;
58697;SDS011;44475;53.206;-6.106;2024-01-27T01:58:50;3.63;;;1.60;;
58697;SDS011;44475;53.206;-6.106;2024-01-27T02:01:18;2.22;;;1.40;;
58697;SDS011;44475;53.206;-6.106;2024-01-27T02:03:55;2.13;;;1.50;;
58697;SDS011;44475;53.206;-6.106;2024-01-27T02:06:22;2.70;;;1.40;;
58697;SDS011;44475;53.206;-6.106;2024-01-27T02:08:49;2.97;;;1.60;;
58697;SDS011;44475;53.206;-6.106;2024-01-27T02:11:16;2.78;;;1.50;;
58697;SDS011;44475;53.206;-6.106;2024-01-27T02:13:43;3.13;;;1.48;;
58697;SDS011;44475;53.206;-6.106;2024-01-27T02:16:09;3.00;;;1.42;;
58697;SDS011;44475;53.206;-6.106;2024-01-27T02:18:35;4.15;;;1.52;;
58697;SDS011;44475;53.206;-6.106;2024-01-27T02:21:02;4.30;;;1.60;;
58697;SDS011;44475;53.206;-6.106;2024-01-27T02:23:28;2.72;;;1.33;;
58697;SDS011;44475;53.206;-6.106;2024-01-27T02:25:54;1.75;;;1.30;;
58697;SDS011;44475;53.206;-6.106;2024-01-27T02:28:21;3.97;;;1.60;;
58697;SDS011;44475;53.206;-6.106;2024-01-27T02:30:48;3.42;;;1.42;;
58697;SDS011;44475;53.206;-6.106;2024-01-27T02:33:14;2.47;;;1.45;;
58697;SDS011;44475;53.206;-6.106;2024-01-27T02:35:41;3.28;;;1.60;;
58697;SDS011;44475;53.206;-6.106;2024-01-27T02:38:08;2.90;;;1.40;;
58697;SDS011;44475;53.206;-6.106;2024-01-27T02:40:35;3.50;;;1.38;;
58697;SDS011;44475;53.206;-6.106;2024-01-27T02:43:01;4.75;;;1.40;;
58697;SDS011;44475;53.206;-6.106;2024-01-27T02:45:27;2.45;;;1.30;;
58697;SDS011;44475;53.206;-6.106;2024-01-27T02:47:54;1.92;;;1.30;;
58697;SDS011;44475;53.206;-6.106;2024-01-27T02:50:20;2.92;;;1.40;;
58697;SDS011;44475;53.206;-6.106;2024-01-27T02:52:46;3.38;;;1.50;;
58697;SDS011;44475;53.206;-6.106;2024-01-27T02:55:12;2.65;;;1.40;;
58697;SDS011;44475;53.206;-6.106;2024-01-27T02:57:40;3.35;;;1.50;;
58697;SDS011;44475;53.206;-6.106;2024-01-27T03:00:06;2.63;;;1.30;;
58697;SDS011;44475;53.206;-6.106;2024-01-27T03:02:33;3.25;;;1.50;;
58697;SDS011;44475;53.206;-6.106;2024-01-27T03:05:00;3.28;;;1.48;;
58697;SDS011;44475;53.206;-6.106;2024-01-27T03:07:26;2.22;;;1.17;;
58697;SDS011;44475;53.206;-6.106;2024-01-27T03:09:52;2.33;;;1.40;;
58697;SDS011;44475;53.206;-6.106;2024-01-27T03:12:18;2.10;;;1.30;;
58697;SDS011;44475;53.206;-6.106;2024-01-27T03:14:45;2.83;;;1.52;;
58697;SDS011;44475;53.206;-6.106;2024-01-27T03:17:13;4.93;;;1.35;;
58697;SDS011;44475;53.206;-6.106;2024-01-27T03:19:39;1.75;;;1.30;;
58697;SDS011;44475;53.206;-6.106;2024-01-27T03:22:05;4.85;;;1.50;;
58697;SDS011;44475;53.206;-6.106;2024-01-27T03:24:32;2.47;;;1.30;;
58697;SDS011;44475;53.206;-6.106;2024-01-27T03:26:58;2.60;;;1.25;;
58697;SDS011;44475;53.206;-6.106;2024-01-27T03:29:24;3.38;;;1.63;;
58697;SDS011;44475;53.206;-6.106;2024-01-27T03:31:51;2.33;;;1.30;;
58697;SDS011;44475;53.206;-6.106;2024-01-27T03:34:17;1.50;;;1.10;;
58697;SDS011;44475;53.206;-6.106;2024-01-27T03:36:49;2.13;;;1.33;;
58697;SDS011;44475;53.206;-6.106;2024-01-27T03:39:15;2.45;;;1.30;;
58697;SDS011;44475;53.206;-6.106;2024-01-27T03:41:41;1.17;;;1.08;;
58697;SDS011;44475;53.206;-6.106;2024-01-27T03:44:08;1.73;;;1.20;;
58697;SDS011;44475;53.206;-6.106;2024-01-27T03:46:34;1.75;;;1.30;;
58697;SDS011;44475;53.206;-6.106;2024-01-27T03:49:00;2.92;;;1.30;;
58697;SDS011;44475;53.206;-6.106;2024-01-27T03:51:26;3.28;;;1.10;;
58697;SDS011;44475;53.206;-6.106;2024-01-27T03:53:53;1.85;;;1.10;;
58697;SDS011;44475;53.206;-6.106;2024-01-27T03:56:19;2.22;;;1.23;;
58697;SDS011;44475;53.206;-6.106;2024-01-27T03:58:45;2.75;;;1.27;;
58697;SDS011;44475;53.206;-6.106;2024-01-27T04:01:11;1.77;;;1.00;;
58697;SDS011;44475;53.206;-6.106;2024-01-27T04:03:38;2.97;;;1.40;;
58697;SDS011;44475;53.206;-6.106;2024-01-27T04:06:04;1.50;;;1.10;;
58697;SDS011;44475;53.206;-6.106;2024-01-27T04:08:31;1.83;;;1.13;;
58697;SDS011;44475;53.206;-6.106;2024-01-27T04:10:57;2.17;;;1.20;;
58697;SDS011;44475;53.206;-6.106;2024-01-27T04:13:23;1.83;;;1.00;;
58697;SDS011;44475;53.206;-6.106;2024-01-27T04:15:50;1.55;;;1.10;;
58697;SDS011;44475;53.206;-6.106;2024-01-27T04:18:17;3.63;;;1.30;;
58697;SDS011;44475;53.206;-6.106;2024-01-27T04:20:43;1.95;;;1.20;;
58697;SDS011;44475;53.206;-6.106;2024-01-27T04:23:11;2.10;;;1.20;;
58697;SDS011;44475;53.206;-6.106;2024-01-27T04:25:37;4.32;;;1.23;;
58697;SDS011;44475;53.206;-6.106;2024-01-27T04:28:04;2.85;;;1.10;;
58697;SDS011;44475;53.206;-6.106;2024-01-27T04:30:30;2.42;;;1.17;;
58697;SDS011;44475;53.206;-6.106;2024-01-27T04:32:56;1.30;;;1.15;;
58697;SDS011;44475;53.206;-6.106;2024-01-27T04:35:23;1.17;;;0.98;;
58697;SDS011;44475;53.206;-6.106;2024-01-27T04:37:49;1.27;;;1.10;;
58697;SDS011;44475;53.206;-6.106;2024-01-27T04:40:16;1.25;;;1.00;;
58697;SDS011;44475;53.206;-6.106;2024-01-27T04:42:42;2.90;;;1.23;;
58697;SDS011;44475;53.206;-6.106;2024-01-27T04:45:09;1.40;;;1.10;;
58697;SDS011;44475;53.206;-6.106;2024-01-27T04:47:35;2.35;;;1.05;;
58697;SDS011;44475;53.206;-6.106;2024-01-27T04:50:01;1.35;;;1.02;;
58697;SDS011;44475;53.206;-6.106;2024-01-27T04:52:28;2.63;;;1.20;;
58697;SDS011;44475;53.206;-6.106;2024-01-27T04:54:54;2.22;;;1.25;;
58697;SDS011;44475;53.206;-6.106;2024-01-27T04:57:21;1.02;;;0.98;;
58697;SDS011;44475;53.206;-6.106;2024-01-27T04:59:47;1.58;;;1.17;;
58697;SDS011;44475;53.206;-6.106;2024-01-27T05:02:13;1.00;;;0.90;;
58697;SDS011;44475;53.206;-6.106;2024-01-27T05:04:39;1.27;;;1.10;;
58697;SDS011;44475;53.206;-6.106;2024-01-27T05:07:06;1.15;;;1.00;;
58697;SDS011;44475;53.206;-6.106;2024-01-27T05:09:33;2.15;;;1.15;;
58697;SDS011;44475;53.206;-6.106;2024-01-27T05:12:00;1.88;;;1.10;;
58697;SDS011;44475;53.206;-6.106;2024-01-27T05:14:27;2.67;;;1.02;;
58697;SDS011;44475;53.206;-6.106;2024-01-27T05:16:54;1.20;;;1.10;;
58697;SDS011;44475;53.206;-6.106;2024-01-27T05:19:20;1.67;;;1.20;;
58697;SDS011;44475;53.206;-6.106;2024-01-27T05:21:47;1.48;;;1.20;;
58697;SDS011;44475;53.206;-6.106;2024-01-27T05:24:13;1.10;;;1.00;;
58697;SDS011;44475;53.206;-6.106;2024-01-27T05:26:40;2.25;;;1.10;;
58697;SDS011;44475;53.206;-6.106;2024-01-27T05:29:06;1.75;;;1.13;;
58697;SDS011;44475;53.206;-6.106;2024-01-27T05:31:33;1.02;;;1.00;;
58697;SDS011;44475;53.206;-6.106;2024-01-27T05:34:00;1.70;;;1.00;;
58697;SDS011;44475;53.206;-6.106;2024-01-27T05:36:26;1.73;;;1.00;;
58697;SDS011;44475;53.206;-6.106;2024-01-27T05:38:52;5.43;;;1.10;;
58697;SDS011;44475;53.206;-6.106;2024-01-27T05:41:19;2.95;;;1.17;;
58697;SDS011;44475;53.206;-6.106;2024-01-27T05:43:45;1.75;;;1.00;;
58697;SDS011;44475;53.206;-6.106;2024-01-27T05:46:11;2.28;;;1.02;;
58697;SDS011;44475;53.206;-6.106;2024-01-27T05:48:37;1.65;;;1.08;;
58697;SDS011;44475;53.206;-6.106;2024-01-27T05:51:03;2.13;;;1.20;;
58697;SDS011;44475;53.206;-6.106;2024-01-27T05:53:30;2.15;;;1.20;;
58697;SDS011;44475;53.206;-6.106;2024-01-27T05:55:56;2.40;;;0.95;;
58697;SDS011;44475;53.206;-6.106;2024-01-27T05:58:22;2.28;;;1.00;;
58697;SDS011;44475;53.206;-6.106;2024-01-27T06:00:49;1.33;;;1.05;;
58697;SDS011;44475;53.206;-6.106;2024-01-27T06:03:15;2.38;;;1.08;;
58697;SDS011;44475;53.206;-6.106;2024-01-27T06:05:42;2.55;;;1.10;;
58697;SDS011;44475;53.206;-6.106;2024-01-27T06:08:09;1.80;;;1.10;;
58697;SDS011;44475;53.206;-6.106;2024-01-27T06:10:35;2.63;;;1.10;;
58697;SDS011;44475;53.206;-6.106;2024-01-27T06:13:02;1.40;;;0.90;;
58697;SDS011;44475;53.206;-6.106;2024-01-27T06:15:30;1.63;;;0.93;;
58697;SDS011;44475;53.206;-6.106;2024-01-27T06:17:56;1.90;;;1.00;;
58697;SDS011;44475;53.206;-6.106;2024-01-27T06:20:23;2.25;;;1.10;;
58697;SDS011;44475;53.206;-6.106;2024-01-27T06:22:52;1.23;;;1.00;;
58697;SDS011;44475;53.206;-6.106;2024-01-27T06:25:21;0.93;;;0.88;;
58697;SDS011;44475;53.206;-6.106;2024-01-27T06:27:48;2.78;;;0.93;;
58697;SDS011;44475;53.206;-6.106;2024-01-27T06:30:16;1.65;;;1.08;;
58697;SDS011;44475;53.206;-6.106;2024-01-27T06:32:44;2.95;;;1.27;;
58697;SDS011;44475;53.206;-6.106;2024-01-27T06:35:11;1.85;;;1.23;;
58697;SDS011;44475;53.206;-6.106;2024-01-27T06:37:38;1.48;;;1.08;;
58697;SDS011;44475;53.206;-6.106;2024-01-27T06:40:05;1.85;;;1.10;;
58697;SDS011;44475;53.206;-6.106;2024-01-27T06:42:32;1.35;;;1.00;;
58697;SDS011;44475;53.206;-6.106;2024-01-27T06:44:59;2.28;;;1.10;;
58697;SDS011;44475;53.206;-6.106;2024-01-27T06:47:25;2.50;;;1.20;;
58697;SDS011;44475;53.206;-6.106;2024-01-27T06:49:52;1.08;;;0.98;;
58697;SDS011;44475;53.206;-6.106;2024-01-27T06:52:19;1.30;;;0.90;;
58697;SDS011;44475;53.206;-6.106;2024-01-27T06:54:45;1.67;;;1.00;;
58697;SDS011;44475;53.206;-6.106;2024-01-27T06:57:22;2.15;;;1.00;;
58697;SDS011;44475;53.206;-6.106;2024-01-27T06:59:50;2.63;;;1.15;;
58697;SDS011;44475;53.206;-6.106;2024-01-27T07:02:27;2.28;;;0.98;;
58697;SDS011;44475;53.206;-6.106;2024-01-27T07:04:56;1.15;;;0.90;;
58697;SDS011;44475;53.206;-6.106;2024-01-27T07:07:24;1.40;;;1.00;;
58697;SDS011;44475;53.206;-6.106;2024-01-27T07:09:52;2.35;;;1.10;;
58697;SDS011;44475;53.206;-6.106;2024-01-27T07:12:22;2.55;;;1.00;;
58697;SDS011;44475;53.206;-6.106;2024-01-27T07:14:49;2.63;;;1.10;;
58697;SDS011;44475;53.206;-6.106;2024-01-27T07:17:22;1.67;;;1.05;;
58697;SDS011;44475;53.206;-6.106;2024-01-27T07:19:48;2.88;;;1.13;;
58697;SDS011;44475;53.206;-6.106;2024-01-27T07:22:15;2.38;;;0.93;;
58697;SDS011;44475;53.206;-6.106;2024-01-27T07:24:41;1.92;;;0.93;;
58697;SDS011;44475;53.206;-6.106;2024-01-27T07:27:11;2.30;;;1.10;;
58697;SDS011;44475;53.206;-6.106;2024-01-27T07:29:42;2.33;;;1.20;;
58697;SDS011;44475;53.206;-6.106;2024-01-27T07:32:08;1.63;;;1.05;;
58697;SDS011;44475;53.206;-6.106;2024-01-27T07:34:41;1.83;;;1.23;;
58697;SDS011;44475;53.206;-6.106;2024-01-27T07:37:09;1.27;;;1.10;;
58697;SDS011;44475;53.206;-6.106;2024-01-27T07:39:35;3.35;;;1.27;;
58697;SDS011;44475;53.206;-6.106;2024-01-27T07:42:02;1.55;;;1.10;;
58697;SDS011;44475;53.206;-6.106;2024-01-27T07:44:28;3.40;;;1.30;;
58697;SDS011;44475;53.206;-6.106;2024-01-27T07:46:55;1.70;;;1.02;;
58697;SDS011;44475;53.206;-6.106;2024-01-27T07:49:21;5.18;;;1.10;;
58697;SDS011;44475;53.206;-6.106;2024-01-27T07:51:47;1.90;;;1.00;;
58697;SDS011;44475;53.206;-6.106;2024-01-27T07:54:14;2.00;;;1.10;;
58697;SDS011;44475;53.206;-6.106;2024-01-27T07:56:40;1.73;;;1.10;;
58697;SDS011;44475;53.206;-6.106;2024-01-27T07:59:07;1.98;;;1.05;;
58697;SDS011;44475;53.206;-6.106;2024-01-27T08:01:42;2.20;;;1.10;;
58697;SDS011;44475;53.206;-6.106;2024-01-27T08:04:08;2.00;;;1.00;;
58697;SDS011;44475;53.206;-6.106;2024-01-27T08:06:45;6.57;;;1.10;;
58697;SDS011;44475;53.206;-6.106;2024-01-27T08:09:13;1.95;;;1.02;;
58697;SDS011;44475;53.206;-6.106;2024-01-27T08:11:41;2.78;;;1.30;;
58697;SDS011;44475;53.206;-6.106;2024-01-27T08:14:07;1.88;;;0.90;;
58697;SDS011;44475;53.206;-6.106;2024-01-27T08:16:34;2.65;;;1.20;;
58697;SDS011;44475;53.206;-6.106;2024-01-27T08:19:01;2.85;;;1.30;;
58697;SDS011;44475;53.206;-6.106;2024-01-27T08:21:27;4.57;;;1.30;;
58697;SDS011;44475;53.206;-6.106;2024-01-27T08:23:53;1.25;;;0.85;;
58697;SDS011;44475;53.206;-6.106;2024-01-27T08:26:20;2.47;;;1.30;;
58697;SDS011;44475;53.206;-6.106;2024-01-27T08:28:47;2.67;;;1.10;;
58697;SDS011;44475;53.206;-6.106;2024-01-27T08:31:13;1.58;;;0.95;;
58697;SDS011;44475;53.206;-6.106;2024-01-27T08:33:40;2.47;;;1.10;;
58697;SDS011;44475;53.206;-6.106;2024-01-27T08:36:06;2.45;;;1.20;;
58697;SDS011;44475;53.206;-6.106;2024-01-27T08:38:33;2.63;;;1.17;;
58697;SDS011;44475;53.206;-6.106;2024-01-27T08:41:00;1.58;;;1.20;;
58697;SDS011;44475;53.206;-6.106;2024-01-27T08:43:26;1.77;;;1.10;;
58697;SDS011;44475;53.206;-6.106;2024-01-27T08:45:53;2.72;;;1.30;;
58697;SDS011;44475;53.206;-6.106;2024-01-27T08:48:20;1.92;;;1.10;;
58697;SDS011;44475;53.206;-6.106;2024-01-27T08:50:46;2.85;;;1.05;;
58697;SDS011;44475;53.206;-6.106;2024-01-27T08:53:12;2.03;;;1.10;;
58697;SDS011;44475;53.206;-6.106;2024-01-27T08:55:39;1.83;;;1.02;;
58697;SDS011;44475;53.206;-6.106;2024-01-27T08:58:05;1.27;;;1.00;;
58697;SDS011;44475;53.206;-6.106;2024-01-27T09:00:31;2.42;;;1.05;;
58697;SDS011;44475;53.206;-6.106;2024-01-27T09:02:58;2.38;;;1.10;;
58697;SDS011;44475;53.206;-6.106;2024-01-27T09:05:25;3.25;;;1.20;;
58697;SDS011;44475;53.206;-6.106;2024-01-27T09:07:53;4.05;;;1.38;;
58697;SDS011;44475;53.206;-6.106;2024-01-27T09:10:19;2.35;;;1.20;;
58697;SDS011;44475;53.206;-6.106;2024-01-27T09:12:45;2.50;;;1.20;;
58697;SDS011;44475;53.206;-6.106;2024-01-27T09:15:12;3.15;;;1.23;;
58697;SDS011;44475;53.206;-6.106;2024-01-27T09:17:38;3.72;;;1.10;;
58697;SDS011;44475;53.206;-6.106;2024-01-27T09:20:05;4.70;;;1.20;;
58697;SDS011;44475;53.206;-6.106;2024-01-27T09:22:31;2.28;;;1.05;;
58697;SDS011;44475;53.206;-6.106;2024-01-27T09:24:58;1.98;;;1.10;;
58697;SDS011;44475;53.206;-6.106;2024-01-27T09:27:24;3.83;;;1.40;;
58697;SDS011;44475;53.206;-6.106;2024-01-27T09:29:50;2.95;;;1.45;;
58697;SDS011;44475;53.206;-6.106;2024-01-27T09:32:17;3.72;;;1.60;;
58697;SDS011;44475;53.206;-6.106;2024-01-27T09:34:43;3.00;;;1.20;;
58697;SDS011;44475;53.206;-6.106;2024-01-27T09:37:09;4.78;;;1.40;;
58697;SDS011;44475;53.206;-6.106;2024-01-27T09:39:36;7.10;;;1.65;;
58697;SDS011;44475;53.206;-6.106;2024-01-27T09:42:03;3.58;;;1.35;;
58697;SDS011;44475;53.206;-6.106;2024-01-27T09:44:32;3.08;;;1.20;;
58697;SDS011;44475;53.206;-6.106;2024-01-27T09:47:00;5.38;;;1.40;;
58697;SDS011;44475;53.206;-6.106;2024-01-27T09:49:27;4.10;;;1.38;;
58697;SDS011;44475;53.206;-6.106;2024-01-27T09:51:54;6.88;;;1.50;;
58697;SDS011;44475;53.206;-6.106;2024-01-27T09:54:22;8.13;;;1.38;;
58697;SDS011;44475;53.206;-6.106;2024-01-27T09:56:48;3.13;;;1.38;;
58697;SDS011;44475;53.206;-6.106;2024-01-27T09:59:16;9.45;;;1.60;;
58697;SDS011;44475;53.206;-6.106;2024-01-27T10:01:45;5.25;;;1.45;;
58697;SDS011;44475;53.206;-6.106;2024-01-27T10:04:12;5.72;;;1.65;;
58697;SDS011;44475;53.206;-6.106;2024-01-27T10:06:40;5.32;;;1.40;;
58697;SDS011;44475;53.206;-6.106;2024-01-27T10:09:06;3.00;;;1.40;;
58697;SDS011;44475;53.206;-6.106;2024-01-27T10:11:33;6.28;;;1.42;;
58697;SDS011;44475;53.206;-6.106;2024-01-27T10:14:02;4.05;;;1.42;;
58697;SDS011;44475;53.206;-6.106;2024-01-27T10:16:39;3.97;;;1.30;;
58697;SDS011;44475;53.206;-6.106;2024-01-27T10:19:06;2.55;;;1.20;;
58697;SDS011;44475;53.206;-6.106;2024-01-27T10:21:37;2.85;;;1.33;;
58697;SDS011;44475;53.206;-6.106;2024-01-27T10:24:03;4.88;;;1.23;;
58697;SDS011;44475;53.206;-6.106;2024-01-27T10:26:31;4.50;;;1.30;;
58697;SDS011;44475;53.206;-6.106;2024-01-27T10:28:58;3.53;;;1.40;;
58697;SDS011;44475;53.206;-6.106;2024-01-27T10:31:28;2.85;;;1.20;;
58697;SDS011;44475;53.206;-6.106;2024-01-27T10:33:57;4.45;;;1.30;;
58697;SDS011;44475;53.206;-6.106;2024-01-27T10:36:24;2.95;;;1.38;;
58697;SDS011;44475;53.206;-6.106;2024-01-27T10:38:53;2.65;;;1.30;;
58697;SDS011;44475;53.206;-6.106;2024-01-27T10:41:23;4.45;;;1.40;;
58697;SDS011;44475;53.206;-6.106;2024-01-27T10:43:51;4.03;;;1.42;;
58697;SDS011;44475;53.206;-6.106;2024-01-27T10:46:20;3.92;;;1.20;;
58697;SDS011;44475;53.206;-6.106;2024-01-27T10:48:51;3.65;;;1.30;;
58697;SDS011;44475;53.206;-6.106;2024-01-27T10:51:30;3.70;;;1.30;;
58697;SDS011;44475;53.206;-6.106;2024-01-27T10:54:00;4.38;;;1.45;;
58697;SDS011;44475;53.206;-6.106;2024-01-27T10:56:31;2.25;;;1.10;;
58697;SDS011;44475;53.206;-6.106;2024-01-27T10:58:59;2.88;;;1.42;;
58697;SDS011;44475;53.206;-6.106;2024-01-27T11:01:26;2.55;;;1.30;;
58697;SDS011;44475;53.206;-6.106;2024-01-27T11:03:57;7.47;;;1.75;;
58697;SDS011;44475;53.206;-6.106;2024-01-27T11:06:33;7.63;;;1.73;;
58697;SDS011;44475;53.206;-6.106;2024-01-27T11:09:07;5.63;;;1.73;;
58697;SDS011;44475;53.206;-6.106;2024-01-27T11:11:56;3.53;;;1.60;;
58697;SDS011;44475;53.206;-6.106;2024-01-27T11:14:29;5.00;;;1.40;;
58697;SDS011;44475;53.206;-6.106;2024-01-27T11:16:57;4.65;;;1.40;;
58697;SDS011;44475;53.206;-6.106;2024-01-27T11:19:26;7.72;;;1.63;;
58697;SDS011;44475;53.206;-6.106;2024-01-27T11:22:03;5.40;;;1.58;;
58697;SDS011;44475;53.206;-6.106;2024-01-27T11:24:37;5.10;;;1.45;;
58697;SDS011;44475;53.206;-6.106;2024-01-27T11:27:07;7.57;;;1.92;;
58697;SDS011;44475;53.206;-6.106;2024-01-27T11:29:46;4.50;;;1.40;;
58697;SDS011;44475;53.206;-6.106;2024-01-27T11:49:21;11.85;;;2.17;;
58697;SDS011;44475;53.206;-6.106;2024-01-27T11:51:48;10.30;;;2.15;;
58697;SDS011;44475;53.206;-6.106;2024-01-27T11:54:15;13.63;;;2.00;;
58697;SDS011;44475;53.206;-6.106;2024-01-27T11:56:41;6.53;;;2.10;;
58697;SDS011;44475;53.206;-6.106;2024-01-27T11:59:07;7.80;;;1.83;;
58697;SDS011;44475;53.206;-6.106;2024-01-27T12:01:35;7.85;;;2.45;;
58697;SDS011;44475;53.206;-6.106;2024-01-27T12:04:02;6.63;;;1.50;;
58697;SDS011;44475;53.206;-6.106;2024-01-27T12:06:29;6.82;;;1.98;;
58697;SDS011;44475;53.206;-6.106;2024-01-27T12:08:56;5.18;;;1.60;;
58697;SDS011;44475;53.206;-6.106;2024-01-27T12:11:26;5.65;;;1.65;;
58697;SDS011;44475;53.206;-6.106;2024-01-27T12:13:53;5.55;;;1.80;;
58697;SDS011;44475;53.206;-6.106;2024-01-27T12:16:21;5.05;;;1.45;;
58697;SDS011;44475;53.206;-6.106;2024-01-27T12:18:51;6.28;;;2.13;;
58697;SDS011;44475;53.206;-6.106;2024-01-27T12:21:20;5.85;;;1.70;;
58697;SDS011;44475;53.206;-6.106;2024-01-27T12:23:56;5.13;;;1.73;;
58697;SDS011;44475;53.206;-6.106;2024-01-27T12:26:30;7.10;;;2.00;;
58697;SDS011;44475;53.206;-6.106;2024-01-27T12:31:23;3.83;;;1.42;;
58697;SDS011;44475;53.206;-6.106;2024-01-27T12:33:53;6.07;;;1.67;;
58697;SDS011;44475;53.206;-6.106;2024-01-27T12:36:21;5.07;;;1.83;;
58697;SDS011;44475;53.206;-6.106;2024-01-27T12:38:52;4.63;;;1.50;;
58697;SDS011;44475;53.206;-6.106;2024-01-27T12:41:24;2.58;;;1.38;;
58697;SDS011;44475;53.206;-6.106;2024-01-27T12:43:54;7.95;;;2.00;;
58697;SDS011;44475;53.206;-6.106;2024-01-27T12:46:21;4.00;;;1.60;;
58697;SDS011;44475;53.206;-6.106;2024-01-27T12:48:48;4.38;;;1.70;;
58697;SDS011;44475;53.206;-6.106;2024-01-27T12:51:14;4.93;;;1.52;;
58697;SDS011;44475;53.206;-6.106;2024-01-27T12:53:41;3.65;;;1.50;;
58697;SDS011;44475;53.206;-6.106;2024-01-27T12:56:09;4.07;;;1.90;;
58697;SDS011;44475;53.206;-6.106;2024-01-27T12:58:37;4.18;;;1.75;;
58697;SDS011;44475;53.206;-6.106;2024-01-27T13:01:05;5.82;;;1.95;;
58697;SDS011;44475;53.206;-6.106;2024-01-27T13:03:32;5.10;;;1.73;;
58697;SDS011;44475;53.206;-6.106;2024-01-27T13:05:58;3.95;;;1.60;;
58697;SDS011;44475;53.206;-6.106;2024-01-27T13:08:25;5.57;;;1.58;;
58697;SDS011;44475;53.206;-6.106;2024-01-27T13:10:52;3.08;;;1.60;;
58697;SDS011;44475;53.206;-6.106;2024-01-27T13:13:18;3.80;;;1.70;;
58697;SDS011;44475;53.206;-6.106;2024-01-27T13:15:45;3.83;;;1.85;;
58697;SDS011;44475;53.206;-6.106;2024-01-27T13:18:11;4.90;;;1.67;;
58697;SDS011;44475;53.206;-6.106;2024-01-27T13:20:38;5.18;;;1.50;;
58697;SDS011;44475;53.206;-6.106;2024-01-27T13:23:07;4.93;;;1.73;;
58697;SDS011;44475;53.206;-6.106;2024-01-27T13:25:33;14.05;;;3.15;;
58697;SDS011;44475;53.206;-6.106;2024-01-27T13:28:00;3.65;;;1.40;;
58697;SDS011;44475;53.206;-6.106;2024-01-27T13:30:26;4.05;;;1.55;;
58697;SDS011;44475;53.206;-6.106;2024-01-27T13:32:53;4.43;;;1.70;;
58697;SDS011;44475;53.206;-6.106;2024-01-27T13:35:21;3.92;;;1.52;;
58697;SDS011;44475;53.206;-6.106;2024-01-27T13:37:54;6.97;;;1.75;;
58697;SDS011;44475;53.206;-6.106;2024-01-27T13:40:35;4.13;;;1.45;;
58697;SDS011;44475;53.206;-6.106;2024-01-27T13:43:11;4.55;;;1.70;;
58697;SDS011;44475;53.206;-6.106;2024-01-27T13:45:42;3.80;;;1.70;;
58697;SDS011;44475;53.206;-6.106;2024-01-27T13:48:14;7.22;;;1.75;;
58697;SDS011;44475;53.206;-6.106;2024-01-27T13:50:57;5.03;;;1.80;;
58697;SDS011;44475;53.206;-6.106;2024-01-27T13:54:21;4.40;;;1.73;;
58697;SDS011;44475;53.206;-6.106;2024-01-27T13:57:07;3.70;;;1.50;;
58697;SDS011;44475;53.206;-6.106;2024-01-27T13:59:43;6.00;;;1.90;;
58697;SDS011;44475;53.206;-6.106;2024-01-27T14:02:36;4.93;;;1.70;;
58697;SDS011;44475;53.206;-6.106;2024-01-27T14:05:14;3.75;;;1.73;;
58697;SDS011;44475;53.206;-6.106;2024-01-27T14:07:52;3.88;;;1.50;;
58697;SDS011;44475;53.206;-6.106;2024-01-27T14:10:19;3.72;;;1.63;;
58697;SDS011;44475;53.206;-6.106;2024-01-27T14:12:45;7.22;;;2.00;;
58697;SDS011;44475;53.206;-6.106;2024-01-27T14:15:11;3.92;;;1.77;;
58697;SDS011;44475;53.206;-6.106;2024-01-27T14:17:38;1.90;;;1.30;;
58697;SDS011;44475;53.206;-6.106;2024-01-27T14:20:04;4.70;;;1.80;;
58697;SDS011;44475;53.206;-6.106;2024-01-27T14:22:34;5.22;;;1.77;;
58697;SDS011;44475;53.206;-6.106;2024-01-27T14:25:01;8.13;;;1.90;;
58697;SDS011;44475;53.206;-6.106;2024-01-27T14:27:28;3.03;;;1.45;;
58697;SDS011;44475;53.206;-6.106;2024-01-27T14:29:54;4.05;;;1.90;;
58697;SDS011;44475;53.206;-6.106;2024-01-27T14:32:21;3.80;;;1.65;;
58697;SDS011;44475;53.206;-6.106;2024-01-27T14:34:48;3.58;;;1.55;;
58697;SDS011;44475;53.206;-6.106;2024-01-27T14:37:15;6.03;;;1.67;;
58697;SDS011;44475;53.206;-6.106;2024-01-27T14:39:44;4.75;;;1.77;;
58697;SDS011;44475;53.206;-6.106;2024-01-27T14:42:14;3.53;;;1.70;;
58697;SDS011;44475;53.206;-6.106;2024-01-27T14:44:44;6.63;;;1.88;;
58697;SDS011;44475;53.206;-6.106;2024-01-27T14:47:14;4.13;;;1.70;;
58697;SDS011;44475;53.206;-6.106;2024-01-27T14:49:41;3.92;;;1.77;;
58697;SDS011;44475;53.206;-6.106;2024-01-27T14:52:10;6.53;;;1.88;;
58697;SDS011;44475;53.206;-6.106;2024-01-27T14:54:37;10.75;;;2.13;;
58697;SDS011;44475;53.206;-6.106;2024-01-27T14:57:06;9.15;;;2.00;;